createdAt,value
2022-09-10T00:01:13.062Z,13.00
2022-09-10T00:03:43.738Z,13.10
2022-09-10T00:06:11.260Z,13.00
2022-09-10T00:08:44.299Z,13.00
2022-09-10T00:11:11.436Z,13.00
2022-09-10T00:13:39.704Z,13.10
2022-09-10T00:19:08.908Z,13.00
2022-09-10T00:21:37.549Z,13.00
2022-09-10T00:24:05.310Z,13.00
2022-09-10T00:26:55.448Z,13.10
2022-09-10T00:29:42.652Z,13.00
2022-09-10T00:32:24.793Z,13.00
2022-09-10T00:34:51.586Z,13.00
2022-09-10T00:37:19.194Z,13.00
2022-09-10T00:39:46.053Z,13.00
2022-09-10T00:42:15.597Z,13.10
2022-09-10T00:44:43.239Z,13.00
2022-09-10T00:51:01.537Z,13.00
2022-09-10T00:56:35.155Z,13.00
2022-09-10T01:49:11.150Z,12.70
2022-09-10T01:51:50.308Z,12.80
2022-09-10T01:54:48.862Z,12.80
2022-09-10T01:57:29.948Z,12.90
2022-09-10T02:00:17.040Z,12.90
2022-09-10T02:03:11.754Z,12.90
2022-09-10T02:08:14.658Z,12.80
2022-09-10T02:11:20.121Z,12.80
2022-09-10T02:16:49.513Z,12.80
2022-09-10T02:19:17.319Z,12.90
2022-09-10T02:21:44.623Z,12.90
2022-09-10T02:24:12.879Z,12.90
2022-09-10T02:26:42.675Z,12.90
2022-09-10T02:29:15.538Z,12.90
2022-09-10T02:37:59.403Z,12.80
2022-09-10T02:46:53.303Z,12.80
2022-09-10T02:49:41.705Z,12.80
2022-09-10T02:52:08.766Z,12.70
2022-09-10T02:54:53.046Z,12.70
2022-09-10T02:57:34.707Z,12.70
2022-09-10T03:00:26.743Z,12.90
2022-09-10T03:03:37.986Z,12.90
2022-09-10T03:06:35.302Z,12.80
2022-09-10T03:09:11.231Z,12.90
2022-09-10T03:11:44.034Z,12.80
2022-09-10T03:29:48.775Z,12.70
2022-09-10T03:40:35.811Z,12.60
2022-09-10T03:44:07.616Z,12.50
2022-09-10T03:47:16.617Z,12.60
2022-09-10T03:52:30.170Z,12.60
2022-09-10T05:06:31.752Z,12.70
2022-09-10T05:42:16.193Z,12.70
2022-09-10T05:51:13.604Z,12.80
2022-09-10T06:00:13.503Z,12.80
2022-09-10T06:02:46.525Z,12.90
2022-09-10T06:05:13.408Z,12.90
2022-09-10T06:07:40.416Z,12.80
2022-09-10T06:10:07.692Z,12.80
2022-09-10T06:12:34.500Z,12.80
2022-09-10T06:15:01.270Z,12.90
2022-09-10T06:17:28.652Z,12.90
2022-09-10T06:19:55.503Z,12.90
2022-09-10T06:22:22.317Z,12.90
2022-09-10T06:24:49.346Z,12.90
2022-09-10T06:27:17.129Z,13.00
2022-09-10T06:29:43.965Z,12.90
2022-09-10T06:32:13.883Z,12.90
2022-09-10T06:34:40.771Z,13.00
2022-09-10T06:37:07.627Z,13.00
2022-09-10T06:39:34.566Z,13.00
2022-09-10T06:42:01.470Z,13.00
2022-09-10T06:44:29.318Z,13.10
2022-09-10T06:47:39.410Z,13.10
2022-09-10T06:49:43.080Z,13.20
2022-09-10T06:52:11.613Z,13.20
2022-09-10T06:54:38.553Z,13.20
2022-09-10T06:57:05.527Z,13.30
2022-09-10T06:59:32.435Z,13.30
2022-09-10T07:02:00.475Z,13.20
2022-09-10T07:04:32.225Z,13.20
2022-09-10T07:07:02.169Z,13.10
2022-09-10T07:09:32.100Z,13.20
2022-09-10T07:11:59.208Z,13.20
2022-09-10T07:14:27.072Z,13.30
2022-09-10T07:16:54.377Z,13.20
2022-09-10T07:19:21.399Z,13.30
2022-09-10T07:21:48.152Z,13.30
2022-09-10T07:24:14.938Z,13.20
2022-09-10T07:26:42.102Z,13.10
2022-09-10T07:29:09.034Z,13.20
2022-09-10T07:31:38.365Z,13.20
2022-09-10T07:34:05.333Z,13.30
2022-09-10T07:36:32.578Z,13.30
2022-09-10T07:39:02.082Z,13.20
2022-09-10T07:41:38.697Z,13.20
2022-09-10T07:44:17.814Z,13.20
2022-09-10T07:46:46.595Z,13.30
2022-09-10T07:49:13.504Z,13.30
2022-09-10T07:52:11.216Z,13.30
2022-09-10T07:54:47.131Z,13.40
2022-09-10T07:57:14.276Z,13.40
2022-09-10T07:59:41.474Z,13.50
2022-09-10T08:02:22.066Z,13.50
2022-09-10T08:05:07.008Z,13.50
2022-09-10T08:07:34.142Z,13.50
2022-09-10T08:10:00.933Z,13.40
2022-09-10T08:16:54.840Z,13.60
2022-09-10T08:19:30.895Z,13.60
2022-09-10T08:21:57.898Z,13.60
2022-09-10T08:24:24.877Z,13.70
2022-09-10T08:27:07.084Z,13.70
2022-09-10T08:32:43.048Z,13.80
2022-09-10T08:35:09.956Z,13.80
2022-09-10T08:37:38.151Z,13.90
2022-09-10T08:40:06.004Z,13.90
2022-09-10T08:42:40.493Z,14.00
2022-09-10T08:45:43.679Z,13.90
2022-09-10T08:51:19.826Z,13.90
2022-09-10T08:54:02.419Z,13.90
2022-09-10T08:56:31.437Z,14.00
2022-09-10T08:59:06.125Z,14.00
2022-09-10T09:01:50.985Z,14.00
2022-09-10T09:05:05.603Z,14.10
2022-09-10T09:10:52.273Z,14.10
2022-09-10T09:17:34.138Z,14.10
2022-09-10T09:23:19.570Z,14.10
2022-09-10T09:30:42.193Z,14.20
2022-09-10T09:33:16.453Z,14.20
2022-09-10T09:35:57.717Z,14.20
2022-09-10T09:38:43.962Z,14.30
2022-09-10T09:52:44.119Z,14.40
2022-09-10T09:55:23.563Z,14.40
2022-09-10T09:58:12.916Z,14.40
2022-09-10T10:00:39.701Z,14.50
2022-09-10T10:03:18.138Z,14.50
2022-09-10T10:05:45.210Z,14.60
2022-09-10T10:08:30.822Z,14.60
2022-09-10T10:10:58.657Z,14.60
2022-09-10T10:13:40.427Z,14.60
2022-09-10T10:16:28.562Z,14.60
2022-09-10T10:18:55.422Z,14.50
2022-09-10T10:21:31.775Z,14.60
2022-09-10T10:23:59.096Z,14.50
2022-09-10T10:26:34.386Z,14.50
2022-09-10T10:29:06.479Z,14.60
2022-09-10T10:31:49.581Z,14.60
2022-09-10T10:34:47.635Z,14.70
2022-09-10T10:37:52.224Z,14.70
2022-09-10T10:41:14.900Z,14.80
2022-09-10T10:44:13.465Z,14.80
2022-09-10T10:47:32.918Z,14.70
2022-09-10T11:01:20.925Z,14.70
2022-09-10T11:03:53.783Z,14.70
2022-09-10T11:06:24.769Z,14.70
2022-09-10T11:09:02.695Z,14.70
2022-09-10T11:11:40.011Z,14.70
2022-09-10T11:14:23.204Z,14.70
2022-09-10T11:16:58.734Z,14.70
2022-09-10T11:20:11.123Z,14.80
2022-09-10T11:22:49.000Z,14.70
2022-09-10T11:25:56.673Z,14.70
2022-09-10T11:28:41.225Z,14.70
2022-09-10T11:31:38.639Z,14.60
2022-09-10T11:34:23.081Z,14.60
2022-09-10T11:37:00.467Z,14.50
2022-09-10T11:39:34.942Z,14.60
2022-09-10T11:42:27.491Z,14.60
2022-09-10T11:45:08.026Z,14.60
2022-09-10T11:51:38.460Z,14.60
2022-09-10T11:54:10.885Z,14.60
2022-09-10T11:57:01.397Z,14.70
2022-09-10T11:59:43.328Z,14.70
2022-09-10T12:02:43.978Z,14.70
2022-09-10T12:05:34.235Z,14.70
2022-09-10T12:08:29.474Z,14.80
2022-09-10T12:11:25.127Z,14.80
2022-09-10T12:13:52.833Z,14.80
2022-09-10T12:17:02.163Z,14.80
2022-09-10T12:19:37.842Z,14.70
2022-09-10T12:22:16.420Z,14.70
2022-09-10T12:24:52.609Z,14.60
2022-09-10T12:27:20.468Z,14.70
2022-09-10T12:29:47.989Z,14.60
2022-09-10T12:32:57.876Z,14.70
2022-09-10T12:35:30.976Z,14.70
2022-09-10T12:38:35.067Z,14.60
2022-09-10T12:41:29.552Z,14.60
2022-09-10T12:44:34.508Z,14.80
2022-09-10T12:47:16.518Z,14.70
2022-09-10T12:49:59.777Z,14.60
2022-09-10T12:52:41.952Z,14.50
2022-09-10T12:55:36.633Z,14.60
2022-09-10T12:58:41.121Z,14.60
2022-09-10T13:01:31.118Z,14.50
2022-09-10T13:04:02.980Z,14.50
2022-09-10T13:06:39.831Z,14.60
2022-09-10T13:09:19.700Z,14.70
2022-09-10T13:11:57.304Z,14.80
2022-09-10T13:14:30.791Z,14.80
2022-09-10T13:16:57.832Z,14.80
2022-09-10T13:19:24.554Z,14.80
2022-09-10T13:21:53.963Z,14.80
2022-09-10T13:24:32.342Z,14.80
2022-09-10T13:27:39.922Z,14.80
2022-09-10T13:30:23.783Z,14.80
2022-09-10T13:33:04.869Z,14.80
2022-09-10T13:36:14.997Z,14.90
2022-09-10T13:38:47.910Z,14.80
2022-09-10T13:41:54.066Z,14.80
2022-09-10T13:44:39.975Z,14.70
2022-09-10T13:47:28.248Z,14.70
2022-09-10T13:50:58.174Z,14.60
2022-09-10T13:54:09.256Z,14.70
2022-09-10T15:00:36.994Z,14.80
2022-09-10T15:03:28.793Z,14.80
2022-09-10T15:23:56.620Z,14.60
2022-09-10T15:26:23.655Z,14.60
2022-09-10T15:28:50.487Z,14.50
2022-09-10T15:31:18.385Z,14.50
2022-09-10T15:34:05.624Z,14.50
2022-09-10T15:36:44.690Z,14.40
2022-09-10T15:39:12.811Z,14.30
2022-09-10T15:41:44.221Z,14.20
2022-09-10T15:44:12.904Z,14.30
2022-09-10T15:46:52.956Z,14.30
2022-09-10T15:49:19.730Z,14.30
2022-09-10T15:51:46.844Z,14.30
2022-09-10T15:54:13.993Z,14.30
2022-09-10T16:04:51.994Z,14.30
2022-09-10T16:23:43.343Z,14.20
2022-09-10T16:26:34.952Z,14.20
2022-09-10T16:31:11.043Z,14.20
2022-09-10T17:39:35.843Z,13.60
2022-09-10T17:42:02.793Z,13.60
2022-09-10T17:44:29.608Z,13.50
2022-09-10T17:47:14.879Z,13.50
2022-09-10T17:49:43.181Z,13.40
2022-09-10T17:52:10.003Z,13.50
2022-09-10T17:54:39.495Z,13.50
2022-09-10T17:57:06.577Z,13.50
2022-09-10T17:59:34.226Z,13.50
2022-09-10T18:02:01.726Z,13.50
2022-09-10T18:04:28.590Z,13.50
2022-09-10T18:06:55.587Z,13.50
2022-09-10T18:09:26.692Z,13.50
2022-09-10T18:12:09.010Z,13.50
2022-09-10T18:14:38.834Z,13.60
2022-09-10T18:17:05.755Z,13.60
2022-09-10T18:19:41.712Z,13.60
2022-09-10T18:22:08.496Z,13.70
2022-09-10T18:24:35.271Z,13.60
2022-09-10T18:27:04.655Z,13.60
2022-09-10T18:29:31.694Z,13.60
2022-09-10T18:32:01.039Z,13.50
2022-09-10T18:34:30.946Z,13.60
2022-09-10T18:37:04.648Z,13.60
2022-09-10T18:39:33.841Z,13.60
2022-09-10T18:42:06.787Z,13.60
2022-09-10T18:44:36.994Z,13.60
2022-09-10T18:47:17.707Z,13.70
2022-09-10T18:49:56.367Z,13.60
2022-09-10T18:52:23.417Z,13.70
2022-09-10T18:54:57.969Z,13.60
2022-09-10T18:57:24.845Z,13.60
2022-09-10T18:59:57.933Z,13.60
2022-09-10T19:02:24.832Z,13.60
2022-09-10T19:05:10.686Z,13.50
2022-09-10T19:07:38.651Z,13.50
2022-09-10T19:10:07.177Z,13.40
2022-09-10T19:12:34.384Z,13.40
2022-09-10T19:15:01.249Z,13.40
2022-09-10T19:17:28.103Z,13.40
2022-09-10T19:20:04.475Z,13.40
2022-09-10T19:22:31.486Z,13.30
2022-09-10T19:24:58.281Z,13.30
2022-09-10T19:27:25.196Z,13.30
2022-09-10T19:29:52.259Z,13.40
2022-09-10T19:32:19.893Z,13.40
2022-09-10T19:34:50.301Z,13.40
2022-09-10T19:37:17.335Z,13.40
2022-09-10T19:39:44.614Z,13.40
2022-09-10T19:42:12.570Z,13.40
2022-09-10T19:44:39.468Z,13.40
2022-09-10T19:47:26.858Z,13.40
2022-09-10T19:49:59.191Z,13.40
2022-09-10T19:52:36.099Z,13.50
2022-09-10T19:55:03.712Z,13.50
2022-09-10T19:57:31.640Z,13.40
2022-09-10T19:59:58.656Z,13.40
2022-09-10T20:02:25.651Z,13.40
2022-09-10T20:04:52.773Z,13.40
2022-09-10T20:07:19.873Z,13.40
2022-09-10T20:09:47.667Z,13.40
2022-09-10T20:12:16.283Z,13.40
2022-09-10T20:14:55.730Z,13.40
2022-09-10T20:17:22.529Z,13.40
2022-09-10T20:19:58.539Z,13.40
2022-09-10T20:22:25.318Z,13.40
2022-09-10T20:24:52.444Z,13.40
2022-09-10T20:27:19.276Z,13.40
2022-09-10T20:29:46.288Z,13.40
2022-09-10T20:32:13.243Z,13.40
2022-09-10T20:34:40.194Z,13.40
2022-09-10T20:37:07.006Z,13.40
2022-09-10T20:39:36.446Z,13.40
2022-09-10T20:42:29.375Z,13.40
2022-09-10T20:44:56.207Z,13.40
2022-09-10T20:47:37.453Z,13.40
2022-09-10T20:50:14.234Z,13.30
2022-09-10T20:52:50.151Z,13.30
2022-09-10T20:55:20.069Z,13.20
2022-09-10T20:57:58.680Z,13.30
2022-09-10T21:03:23.611Z,13.30
2022-09-10T21:05:56.642Z,13.30
2022-09-10T21:08:25.117Z,13.20
2022-09-10T21:10:52.047Z,13.20
2022-09-10T21:16:45.319Z,13.20
2022-09-10T21:19:17.178Z,13.20
2022-09-10T21:21:45.344Z,13.10
2022-09-10T21:24:14.672Z,13.20
2022-09-10T21:26:45.494Z,13.20
2022-09-10T21:29:18.924Z,13.20
2022-09-10T21:31:47.089Z,13.30
2022-09-10T21:34:14.927Z,13.20
2022-09-10T21:36:54.160Z,13.20
2022-09-10T21:39:47.931Z,13.20
2022-09-10T21:42:17.224Z,13.20
2022-09-10T21:44:44.083Z,13.20
2022-09-10T21:47:11.191Z,13.10
2022-09-10T21:49:47.342Z,13.10
2022-09-10T21:52:35.918Z,13.10
2022-09-10T21:55:04.940Z,13.10
2022-09-10T21:58:10.204Z,13.00
2022-09-10T22:03:39.994Z,13.00
2022-09-10T22:06:26.976Z,13.00
2022-09-10T22:11:46.833Z,13.00
2022-09-10T22:14:16.314Z,12.90
2022-09-10T22:16:44.154Z,12.90
2022-09-10T22:19:30.820Z,12.90
2022-09-10T22:22:03.598Z,12.90
2022-09-10T22:24:30.578Z,12.90
2022-09-10T22:27:12.425Z,12.90
2022-09-10T22:29:45.386Z,12.90
2022-09-10T22:32:21.374Z,12.80
2022-09-10T22:34:49.012Z,12.80
2022-09-10T22:37:15.757Z,12.80
2022-09-10T22:39:42.997Z,12.80
2022-09-10T22:42:10.802Z,12.70
2022-09-10T22:44:37.659Z,12.70
2022-09-10T22:47:06.929Z,12.70
2022-09-10T22:49:34.034Z,12.60
2022-09-10T22:52:22.763Z,12.60
2022-09-10T22:54:49.575Z,12.50
2022-09-10T22:57:24.153Z,12.60
2022-09-10T22:59:51.079Z,12.70
2022-09-10T23:02:17.921Z,12.70
2022-09-10T23:04:48.402Z,12.70
2022-09-10T23:07:16.707Z,12.60
2022-09-10T23:09:50.252Z,12.70
2022-09-10T23:12:22.551Z,12.70
2022-09-10T23:14:57.963Z,12.70
2022-09-10T23:17:34.265Z,12.70
2022-09-10T23:20:21.622Z,12.70
2022-09-10T23:22:48.611Z,12.70
2022-09-10T23:25:21.057Z,12.70
2022-09-10T23:27:54.425Z,12.60
2022-09-10T23:30:23.065Z,12.70
2022-09-10T23:32:49.901Z,12.70
2022-09-10T23:35:19.784Z,12.70
2022-09-10T23:37:48.968Z,12.70
2022-09-10T23:40:27.196Z,12.70
2022-09-10T23:42:55.939Z,12.90
2022-09-10T23:45:23.087Z,12.80
2022-09-10T23:50:30.637Z,12.70
2022-09-10T23:55:50.870Z,12.70
2022-09-10T23:58:33.122Z,12.70
